<?xml version="1.0" encoding="UTF-8" standalone="no" ?>
<gpx xmlns="http://www.topografix.com/GPX/1/1" xmlns:xsi="http://www.w3.org/2001/XMLSchema-instance" xsi:schemaLocation="http://www.topografix.com/GPX/1/1 http://www.topografix.com/GPX/1/1/gpx.xsd" version="1.1" creator="VisuGPX - https://www.visugpx.com">
  <metadata>
    <name>14250969-Dampierre 9,5 km 13-03-2022</name>
  </metadata>
  <trk>
    <name><![CDATA[14250969-Dampierre 9,5 km 13-03-2022]]></name>
    <trkseg>
      <trkpt lat="48.70583" lon="1.98685">
        <ele>97</ele>
        <time>2022-02-12T10:39:05Z</time>
      </trkpt>
      <trkpt lat="48.70555" lon="1.98632">
        <ele>100</ele>
        <time>2022-02-12T10:40:05Z</time>
      </trkpt>
      <trkpt lat="48.70496" lon="1.98596">
        <ele>101</ele>
        <time>2022-02-12T10:41:30Z</time>
      </trkpt>
      <trkpt lat="48.7056" lon="1.98488">
        <ele>114</ele>
        <time>2022-02-12T10:43:37Z</time>
      </trkpt>
      <trkpt lat="48.70604" lon="1.98403">
        <ele>132</ele>
        <time>2022-02-12T10:45:13Z</time>
      </trkpt>
      <trkpt lat="48.70608" lon="1.98317">
        <ele>145</ele>
        <time>2022-02-12T10:46:29Z</time>
      </trkpt>
      <trkpt lat="48.70592" lon="1.98187">
        <ele>155</ele>
        <time>2022-02-12T10:48:25Z</time>
      </trkpt>
      <trkpt lat="48.70616" lon="1.98136">
        <ele>155</ele>
        <time>2022-02-12T10:49:20Z</time>
      </trkpt>
      <trkpt lat="48.70623" lon="1.97766">
        <ele>162</ele>
        <time>2022-02-12T10:54:46Z</time>
      </trkpt>
      <trkpt lat="48.70635" lon="1.97594">
        <ele>162</ele>
        <time>2022-02-12T10:57:18Z</time>
      </trkpt>
      <trkpt lat="48.7067" lon="1.97417">
        <ele>165</ele>
        <time>2022-02-12T11:00:01Z</time>
      </trkpt>
      <trkpt lat="48.70702" lon="1.97303">
        <ele>166</ele>
        <time>2022-02-12T11:01:50Z</time>
      </trkpt>
      <trkpt lat="48.70731" lon="1.97195">
        <ele>167</ele>
        <time>2022-02-12T11:03:33Z</time>
      </trkpt>
      <trkpt lat="48.70643" lon="1.97089">
        <ele>168</ele>
        <time>2022-02-12T11:06:03Z</time>
      </trkpt>
      <trkpt lat="48.7063" lon="1.9703">
        <ele>168</ele>
        <time>2022-02-12T11:06:58Z</time>
      </trkpt>
      <trkpt lat="48.70662" lon="1.96954">
        <ele>166</ele>
        <time>2022-02-12T11:08:17Z</time>
      </trkpt>
      <trkpt lat="48.70771" lon="1.96649">
        <ele>162</ele>
        <time>2022-02-12T11:13:23Z</time>
      </trkpt>
      <trkpt lat="48.70833" lon="1.96321">
        <ele>163</ele>
        <time>2022-02-12T11:18:23Z</time>
      </trkpt>
      <trkpt lat="48.70896" lon="1.96154">
        <ele>165</ele>
        <time>2022-02-12T11:21:12Z</time>
      </trkpt>
      <trkpt lat="48.7097" lon="1.95913">
        <ele>162</ele>
        <time>2022-02-12T11:25:07Z</time>
      </trkpt>
      <trkpt lat="48.7107" lon="1.95674">
        <ele>162</ele>
        <time>2022-02-12T11:29:16Z</time>
      </trkpt>
      <trkpt lat="48.71124" lon="1.95455">
        <ele>164</ele>
        <time>2022-02-12T11:32:42Z</time>
      </trkpt>
      <trkpt lat="48.71167" lon="1.9523">
        <ele>168</ele>
        <time>2022-02-12T11:36:08Z</time>
      </trkpt>
      <trkpt lat="48.71163" lon="1.95237">
        <ele>168</ele>
        <time>2022-02-12T11:36:16Z</time>
      </trkpt>
      <trkpt lat="48.71219" lon="1.95264">
        <ele>166</ele>
        <time>2022-02-12T11:37:34Z</time>
      </trkpt>
      <trkpt lat="48.71298" lon="1.95261">
        <ele>164</ele>
        <time>2022-02-12T11:39:20Z</time>
      </trkpt>
      <trkpt lat="48.71317" lon="1.95305">
        <ele>164</ele>
        <time>2022-02-12T11:40:06Z</time>
      </trkpt>
      <trkpt lat="48.71307" lon="1.95447">
        <ele>164</ele>
        <time>2022-02-12T11:42:12Z</time>
      </trkpt>
      <trkpt lat="48.71266" lon="1.95619">
        <ele>163</ele>
        <time>2022-02-12T11:44:53Z</time>
      </trkpt>
      <trkpt lat="48.71188" lon="1.9584">
        <ele>158</ele>
        <time>2022-02-12T11:48:34Z</time>
      </trkpt>
      <trkpt lat="48.71173" lon="1.95901">
        <ele>156</ele>
        <time>2022-02-12T11:49:31Z</time>
      </trkpt>
      <trkpt lat="48.71184" lon="1.96079">
        <ele>152</ele>
        <time>2022-02-12T11:52:08Z</time>
      </trkpt>
      <trkpt lat="48.71198" lon="1.96151">
        <ele>151</ele>
        <time>2022-02-12T11:53:14Z</time>
      </trkpt>
      <trkpt lat="48.71239" lon="1.96211">
        <ele>149</ele>
        <time>2022-02-12T11:54:31Z</time>
      </trkpt>
      <trkpt lat="48.71283" lon="1.96326">
        <ele>147</ele>
        <time>2022-02-12T11:56:28Z</time>
      </trkpt>
      <trkpt lat="48.71357" lon="1.96453">
        <ele>129</ele>
        <time>2022-02-12T11:58:57Z</time>
      </trkpt>
      <trkpt lat="48.71396" lon="1.96469">
        <ele>123</ele>
        <time>2022-02-12T11:59:51Z</time>
      </trkpt>
      <trkpt lat="48.71423" lon="1.96487">
        <ele>117</ele>
        <time>2022-02-12T12:00:30Z</time>
      </trkpt>
      <trkpt lat="48.71448" lon="1.96551">
        <ele>116</ele>
        <time>2022-02-12T12:01:36Z</time>
      </trkpt>
      <trkpt lat="48.71468" lon="1.96582">
        <ele>114</ele>
        <time>2022-02-12T12:02:14Z</time>
      </trkpt>
      <trkpt lat="48.71501" lon="1.96614">
        <ele>111</ele>
        <time>2022-02-12T12:03:06Z</time>
      </trkpt>
      <trkpt lat="48.71504" lon="1.9666">
        <ele>112</ele>
        <time>2022-02-12T12:03:47Z</time>
      </trkpt>
      <trkpt lat="48.71535" lon="1.96657">
        <ele>112</ele>
        <time>2022-02-12T12:04:28Z</time>
      </trkpt>
      <trkpt lat="48.71554" lon="1.96631">
        <ele>111</ele>
        <time>2022-02-12T12:05:02Z</time>
      </trkpt>
      <trkpt lat="48.71659" lon="1.96737">
        <ele>108</ele>
        <time>2022-02-12T12:07:51Z</time>
      </trkpt>
      <trkpt lat="48.71651" lon="1.96781">
        <ele>107</ele>
        <time>2022-02-12T12:08:31Z</time>
      </trkpt>
      <trkpt lat="48.71611" lon="1.96824">
        <ele>108</ele>
        <time>2022-02-12T12:09:36Z</time>
      </trkpt>
      <trkpt lat="48.71612" lon="1.9686">
        <ele>107</ele>
        <time>2022-02-12T12:10:08Z</time>
      </trkpt>
      <trkpt lat="48.71636" lon="1.96854">
        <ele>106</ele>
        <time>2022-02-12T12:10:40Z</time>
      </trkpt>
      <trkpt lat="48.71713" lon="1.96884">
        <ele>106</ele>
        <time>2022-02-12T12:12:27Z</time>
      </trkpt>
      <trkpt lat="48.71751" lon="1.96918">
        <ele>108</ele>
        <time>2022-02-12T12:13:25Z</time>
      </trkpt>
      <trkpt lat="48.71751" lon="1.96994">
        <ele>109</ele>
        <time>2022-02-12T12:14:32Z</time>
      </trkpt>
      <trkpt lat="48.71737" lon="1.97027">
        <ele>110</ele>
        <time>2022-02-12T12:15:07Z</time>
      </trkpt>
      <trkpt lat="48.71736" lon="1.97059">
        <ele>112</ele>
        <time>2022-02-12T12:15:35Z</time>
      </trkpt>
      <trkpt lat="48.71767" lon="1.97066">
        <ele>116</ele>
        <time>2022-02-12T12:16:17Z</time>
      </trkpt>
      <trkpt lat="48.71801" lon="1.97094">
        <ele>121</ele>
        <time>2022-02-12T12:17:09Z</time>
      </trkpt>
      <trkpt lat="48.71859" lon="1.97113">
        <ele>131</ele>
        <time>2022-02-12T12:18:28Z</time>
      </trkpt>
      <trkpt lat="48.71879" lon="1.97116">
        <ele>133</ele>
        <time>2022-02-12T12:18:55Z</time>
      </trkpt>
      <trkpt lat="48.71932" lon="1.97069">
        <ele>134</ele>
        <time>2022-02-12T12:20:17Z</time>
      </trkpt>
      <trkpt lat="48.71958" lon="1.97057">
        <ele>138</ele>
        <time>2022-02-12T12:20:53Z</time>
      </trkpt>
      <trkpt lat="48.71987" lon="1.97082">
        <ele>138</ele>
        <time>2022-02-12T12:21:37Z</time>
      </trkpt>
      <trkpt lat="48.72002" lon="1.97112">
        <ele>140</ele>
        <time>2022-02-12T12:22:10Z</time>
      </trkpt>
      <trkpt lat="48.72044" lon="1.97156">
        <ele>140</ele>
        <time>2022-02-12T12:23:19Z</time>
      </trkpt>
      <trkpt lat="48.72078" lon="1.972">
        <ele>142</ele>
        <time>2022-02-12T12:24:18Z</time>
      </trkpt>
      <trkpt lat="48.72087" lon="1.97289">
        <ele>148</ele>
        <time>2022-02-12T12:25:38Z</time>
      </trkpt>
      <trkpt lat="48.72113" lon="1.97339">
        <ele>149</ele>
        <time>2022-02-12T12:26:34Z</time>
      </trkpt>
      <trkpt lat="48.72123" lon="1.97388">
        <ele>153</ele>
        <time>2022-02-12T12:27:19Z</time>
      </trkpt>
      <trkpt lat="48.72133" lon="1.97491">
        <ele>165</ele>
        <time>2022-02-12T12:28:50Z</time>
      </trkpt>
      <trkpt lat="48.72157" lon="1.97575">
        <ele>171</ele>
        <time>2022-02-12T12:30:11Z</time>
      </trkpt>
      <trkpt lat="48.7217" lon="1.97611">
        <ele>170</ele>
        <time>2022-02-12T12:30:47Z</time>
      </trkpt>
      <trkpt lat="48.722" lon="1.9762">
        <ele>169</ele>
        <time>2022-02-12T12:31:28Z</time>
      </trkpt>
      <trkpt lat="48.72214" lon="1.97679">
        <ele>169</ele>
        <time>2022-02-12T12:32:23Z</time>
      </trkpt>
      <trkpt lat="48.72224" lon="1.97745">
        <ele>171</ele>
        <time>2022-02-12T12:33:23Z</time>
      </trkpt>
      <trkpt lat="48.72276" lon="1.97893">
        <ele>171</ele>
        <time>2022-02-12T12:35:50Z</time>
      </trkpt>
      <trkpt lat="48.72312" lon="1.97922">
        <ele>171</ele>
        <time>2022-02-12T12:36:45Z</time>
      </trkpt>
      <trkpt lat="48.72329" lon="1.97962">
        <ele>171</ele>
        <time>2022-02-12T12:37:27Z</time>
      </trkpt>
      <trkpt lat="48.72332" lon="1.98023">
        <ele>172</ele>
        <time>2022-02-12T12:38:20Z</time>
      </trkpt>
      <trkpt lat="48.72371" lon="1.98125">
        <ele>169</ele>
        <time>2022-02-12T12:40:04Z</time>
      </trkpt>
      <trkpt lat="48.72412" lon="1.98198">
        <ele>165</ele>
        <time>2022-02-12T12:41:29Z</time>
      </trkpt>
      <trkpt lat="48.72233" lon="1.98173">
        <ele>171</ele>
        <time>2022-02-12T12:45:29Z</time>
      </trkpt>
      <trkpt lat="48.71994" lon="1.98108">
        <ele>172</ele>
        <time>2022-02-12T12:50:53Z</time>
      </trkpt>
      <trkpt lat="48.71974" lon="1.98203">
        <ele>168</ele>
        <time>2022-02-12T12:52:20Z</time>
      </trkpt>
      <trkpt lat="48.71948" lon="1.98238">
        <ele>168</ele>
        <time>2022-02-12T12:53:07Z</time>
      </trkpt>
      <trkpt lat="48.71896" lon="1.98337">
        <ele>168</ele>
        <time>2022-02-12T12:54:58Z</time>
      </trkpt>
      <trkpt lat="48.71857" lon="1.98414">
        <ele>170</ele>
        <time>2022-02-12T12:56:24Z</time>
      </trkpt>
      <trkpt lat="48.7184" lon="1.98315">
        <ele>169</ele>
        <time>2022-02-12T12:57:54Z</time>
      </trkpt>
      <trkpt lat="48.71792" lon="1.98282">
        <ele>163</ele>
        <time>2022-02-12T12:59:04Z</time>
      </trkpt>
      <trkpt lat="48.71754" lon="1.98226">
        <ele>163</ele>
        <time>2022-02-12T13:00:15Z</time>
      </trkpt>
      <trkpt lat="48.71701" lon="1.98201">
        <ele>161</ele>
        <time>2022-02-12T13:01:29Z</time>
      </trkpt>
      <trkpt lat="48.71674" lon="1.98212">
        <ele>157</ele>
        <time>2022-02-12T13:02:06Z</time>
      </trkpt>
      <trkpt lat="48.71663" lon="1.98322">
        <ele>142</ele>
        <time>2022-02-12T13:03:44Z</time>
      </trkpt>
      <trkpt lat="48.71605" lon="1.98348">
        <ele>133</ele>
        <time>2022-02-12T13:05:05Z</time>
      </trkpt>
      <trkpt lat="48.71618" lon="1.98429">
        <ele>137</ele>
        <time>2022-02-12T13:06:18Z</time>
      </trkpt>
      <trkpt lat="48.71643" lon="1.98472">
        <ele>143</ele>
        <time>2022-02-12T13:07:09Z</time>
      </trkpt>
      <trkpt lat="48.71626" lon="1.98559">
        <ele>146</ele>
        <time>2022-02-12T13:08:29Z</time>
      </trkpt>
      <trkpt lat="48.71608" lon="1.98573">
        <ele>143</ele>
        <time>2022-02-12T13:08:56Z</time>
      </trkpt>
      <trkpt lat="48.71608" lon="1.98631">
        <ele>147</ele>
        <time>2022-02-12T13:09:47Z</time>
      </trkpt>
      <trkpt lat="48.71591" lon="1.98657">
        <ele>147</ele>
        <time>2022-02-12T13:10:19Z</time>
      </trkpt>
      <trkpt lat="48.71514" lon="1.98696">
        <ele>143</ele>
        <time>2022-02-12T13:12:07Z</time>
      </trkpt>
      <trkpt lat="48.7148" lon="1.98731">
        <ele>150</ele>
        <time>2022-02-12T13:13:02Z</time>
      </trkpt>
      <trkpt lat="48.71421" lon="1.98737">
        <ele>148</ele>
        <time>2022-02-12T13:14:21Z</time>
      </trkpt>
      <trkpt lat="48.71393" lon="1.98754">
        <ele>148</ele>
        <time>2022-02-12T13:15:01Z</time>
      </trkpt>
      <trkpt lat="48.71381" lon="1.98802">
        <ele>153</ele>
        <time>2022-02-12T13:15:46Z</time>
      </trkpt>
      <trkpt lat="48.71345" lon="1.98819">
        <ele>149</ele>
        <time>2022-02-12T13:16:37Z</time>
      </trkpt>
      <trkpt lat="48.71339" lon="1.9887">
        <ele>151</ele>
        <time>2022-02-12T13:17:22Z</time>
      </trkpt>
      <trkpt lat="48.71264" lon="1.98943">
        <ele>138</ele>
        <time>2022-02-12T13:19:21Z</time>
      </trkpt>
      <trkpt lat="48.71239" lon="1.9893">
        <ele>130</ele>
        <time>2022-02-12T13:19:57Z</time>
      </trkpt>
      <trkpt lat="48.7121" lon="1.98925">
        <ele>122</ele>
        <time>2022-02-12T13:20:36Z</time>
      </trkpt>
      <trkpt lat="48.71162" lon="1.98936">
        <ele>112</ele>
        <time>2022-02-12T13:21:40Z</time>
      </trkpt>
      <trkpt lat="48.71179" lon="1.98893">
        <ele>112</ele>
        <time>2022-02-12T13:22:24Z</time>
      </trkpt>
      <trkpt lat="48.7122" lon="1.98855">
        <ele>119</ele>
        <time>2022-02-12T13:23:29Z</time>
      </trkpt>
      <trkpt lat="48.71313" lon="1.98631">
        <ele>117</ele>
        <time>2022-02-12T13:27:22Z</time>
      </trkpt>
      <trkpt lat="48.71325" lon="1.98573">
        <ele>114</ele>
        <time>2022-02-12T13:28:15Z</time>
      </trkpt>
      <trkpt lat="48.71332" lon="1.98515">
        <ele>115</ele>
        <time>2022-02-12T13:29:07Z</time>
      </trkpt>
      <trkpt lat="48.7128" lon="1.98502">
        <ele>105</ele>
        <time>2022-02-12T13:30:17Z</time>
      </trkpt>
      <trkpt lat="48.71193" lon="1.98587">
        <ele>96</ele>
        <time>2022-02-12T13:32:36Z</time>
      </trkpt>
      <trkpt lat="48.71124" lon="1.98584">
        <ele>93</ele>
        <time>2022-02-12T13:34:08Z</time>
      </trkpt>
      <trkpt lat="48.71048" lon="1.98575">
        <ele>94</ele>
        <time>2022-02-12T13:35:49Z</time>
      </trkpt>
      <trkpt lat="48.70986" lon="1.98599">
        <ele>97</ele>
        <time>2022-02-12T13:37:15Z</time>
      </trkpt>
      <trkpt lat="48.70889" lon="1.98541">
        <ele>106</ele>
        <time>2022-02-12T13:39:34Z</time>
      </trkpt>
      <trkpt lat="48.70833" lon="1.98544">
        <ele>111</ele>
        <time>2022-02-12T13:40:49Z</time>
      </trkpt>
      <trkpt lat="48.70758" lon="1.98701">
        <ele>109</ele>
        <time>2022-02-12T13:43:39Z</time>
      </trkpt>
      <trkpt lat="48.70728" lon="1.98731">
        <ele>107</ele>
        <time>2022-02-12T13:44:27Z</time>
      </trkpt>
      <trkpt lat="48.7064" lon="1.9876">
        <ele>100</ele>
        <time>2022-02-12T13:46:27Z</time>
      </trkpt>
      <trkpt lat="48.70603" lon="1.98701">
        <ele>100</ele>
        <time>2022-02-12T13:47:39Z</time>
      </trkpt>
      <trkpt lat="48.70585" lon="1.98684">
        <ele>98</ele>
        <time>2022-02-12T13:48:07Z</time>
      </trkpt>
    </trkseg>
  </trk>
</gpx>